sensor_id;sensor_type;location;lat;lon;timestamp;P1;durP1;ratioP1;P2;durP2;ratioP2
26098;SDS011;13860;52.370;6.764;2023-08-20T00:01:04;9.90;;;3.92;;
26098;SDS011;13860;52.370;6.764;2023-08-20T00:04:13;12.23;;;3.55;;
26098;SDS011;13860;52.370;6.764;2023-08-20T00:07:23;6.03;;;3.83;;
26098;SDS011;13860;52.370;6.764;2023-08-20T00:10:32;8.23;;;3.90;;
26098;SDS011;13860;52.370;6.764;2023-08-20T00:13:40;6.95;;;3.75;;
26098;SDS011;13860;52.370;6.764;2023-08-20T00:16:50;6.13;;;3.58;;
26098;SDS011;13860;52.370;6.764;2023-08-20T00:19:56;14.55;;;4.28;;
26098;SDS011;13860;52.370;6.764;2023-08-20T00:23:04;9.25;;;4.45;;
26098;SDS011;13860;52.370;6.764;2023-08-20T00:26:11;13.77;;;4.20;;
26098;SDS011;13860;52.370;6.764;2023-08-20T00:29:22;7.43;;;4.15;;
26098;SDS011;13860;52.370;6.764;2023-08-20T00:32:27;8.18;;;3.85;;
26098;SDS011;13860;52.370;6.764;2023-08-20T00:35:35;10.93;;;4.55;;
26098;SDS011;13860;52.370;6.764;2023-08-20T00:38:40;10.63;;;4.68;;
26098;SDS011;13860;52.370;6.764;2023-08-20T00:41:49;11.32;;;4.28;;
26098;SDS011;13860;52.370;6.764;2023-08-20T00:44:57;12.73;;;4.65;;
26098;SDS011;13860;52.370;6.764;2023-08-20T00:48:06;10.75;;;3.97;;
26098;SDS011;13860;52.370;6.764;2023-08-20T00:51:13;9.18;;;4.43;;
26098;SDS011;13860;52.370;6.764;2023-08-20T00:54:22;13.77;;;4.25;;
26098;SDS011;13860;52.370;6.764;2023-08-20T00:57:28;11.65;;;4.60;;
26098;SDS011;13860;52.370;6.764;2023-08-20T01:00:43;10.43;;;4.72;;
26098;SDS011;13860;52.370;6.764;2023-08-20T01:03:57;17.88;;;4.97;;
26098;SDS011;13860;52.370;6.764;2023-08-20T01:07:08;8.75;;;4.25;;
26098;SDS011;13860;52.370;6.764;2023-08-20T01:10:20;9.15;;;4.53;;
26098;SDS011;13860;52.370;6.764;2023-08-20T01:13:33;11.15;;;3.97;;
26098;SDS011;13860;52.370;6.764;2023-08-20T01:16:41;9.32;;;4.10;;
26098;SDS011;13860;52.370;6.764;2023-08-20T01:19:51;8.93;;;4.07;;
26098;SDS011;13860;52.370;6.764;2023-08-20T01:26:56;9.77;;;4.40;;
26098;SDS011;13860;52.370;6.764;2023-08-20T01:30:18;8.52;;;3.38;;
26098;SDS011;13860;52.370;6.764;2023-08-20T01:33:26;10.52;;;4.05;;
26098;SDS011;13860;52.370;6.764;2023-08-20T01:36:35;9.43;;;4.10;;
26098;SDS011;13860;52.370;6.764;2023-08-20T01:39:45;18.08;;;4.40;;
26098;SDS011;13860;52.370;6.764;2023-08-20T01:42:53;9.07;;;4.20;;
26098;SDS011;13860;52.370;6.764;2023-08-20T01:46:01;8.98;;;4.28;;
26098;SDS011;13860;52.370;6.764;2023-08-20T01:49:10;10.95;;;5.00;;
26098;SDS011;13860;52.370;6.764;2023-08-20T01:52:15;7.45;;;4.07;;
26098;SDS011;13860;52.370;6.764;2023-08-20T01:55:22;10.20;;;4.10;;
26098;SDS011;13860;52.370;6.764;2023-08-20T01:58:33;8.05;;;4.20;;
26098;SDS011;13860;52.370;6.764;2023-08-20T02:01:44;9.80;;;4.57;;
26098;SDS011;13860;52.370;6.764;2023-08-20T02:04:51;8.00;;;4.60;;
26098;SDS011;13860;52.370;6.764;2023-08-20T02:08:00;9.63;;;4.35;;
26098;SDS011;13860;52.370;6.764;2023-08-20T02:11:07;12.25;;;5.45;;
26098;SDS011;13860;52.370;6.764;2023-08-20T02:14:15;12.07;;;4.07;;
26098;SDS011;13860;52.370;6.764;2023-08-20T02:17:24;8.63;;;4.60;;
26098;SDS011;13860;52.370;6.764;2023-08-20T02:20:32;12.38;;;4.93;;
26098;SDS011;13860;52.370;6.764;2023-08-20T02:23:39;12.43;;;4.32;;
26098;SDS011;13860;52.370;6.764;2023-08-20T02:26:48;15.57;;;4.97;;
26098;SDS011;13860;52.370;6.764;2023-08-20T02:29:54;9.25;;;4.65;;
26098;SDS011;13860;52.370;6.764;2023-08-20T02:33:05;12.48;;;5.45;;
26098;SDS011;13860;52.370;6.764;2023-08-20T02:36:11;11.68;;;4.22;;
26098;SDS011;13860;52.370;6.764;2023-08-20T02:39:21;12.32;;;5.63;;
26098;SDS011;13860;52.370;6.764;2023-08-20T02:42:26;16.30;;;6.20;;
26098;SDS011;13860;52.370;6.764;2023-08-20T02:45:39;16.83;;;5.18;;
26098;SDS011;13860;52.370;6.764;2023-08-20T02:48:48;12.10;;;5.07;;
26098;SDS011;13860;52.370;6.764;2023-08-20T02:51:56;17.13;;;5.65;;
26098;SDS011;13860;52.370;6.764;2023-08-20T02:55:02;11.32;;;5.47;;
26098;SDS011;13860;52.370;6.764;2023-08-20T02:58:14;13.18;;;5.47;;
26098;SDS011;13860;52.370;6.764;2023-08-20T03:01:21;24.20;;;5.60;;
26098;SDS011;13860;52.370;6.764;2023-08-20T03:04:35;10.93;;;5.38;;
26098;SDS011;13860;52.370;6.764;2023-08-20T03:07:42;12.82;;;4.85;;
26098;SDS011;13860;52.370;6.764;2023-08-20T03:10:50;12.73;;;5.70;;
26098;SDS011;13860;52.370;6.764;2023-08-20T03:13:56;14.57;;;5.60;;
26098;SDS011;13860;52.370;6.764;2023-08-20T03:17:07;11.50;;;5.90;;
26098;SDS011;13860;52.370;6.764;2023-08-20T03:20:17;14.90;;;4.78;;
26098;SDS011;13860;52.370;6.764;2023-08-20T03:23:25;16.85;;;6.05;;
26098;SDS011;13860;52.370;6.764;2023-08-20T03:26:31;11.43;;;5.47;;
26098;SDS011;13860;52.370;6.764;2023-08-20T03:29:39;11.43;;;4.93;;
26098;SDS011;13860;52.370;6.764;2023-08-20T03:32:45;11.35;;;5.00;;
26098;SDS011;13860;52.370;6.764;2023-08-20T03:35:55;10.15;;;5.20;;
26098;SDS011;13860;52.370;6.764;2023-08-20T03:39:02;9.00;;;5.40;;
26098;SDS011;13860;52.370;6.764;2023-08-20T03:42:10;13.57;;;5.72;;
26098;SDS011;13860;52.370;6.764;2023-08-20T03:45:15;15.15;;;5.72;;
26098;SDS011;13860;52.370;6.764;2023-08-20T03:48:22;12.70;;;5.10;;
26098;SDS011;13860;52.370;6.764;2023-08-20T03:51:30;14.63;;;5.15;;
26098;SDS011;13860;52.370;6.764;2023-08-20T03:54:38;11.23;;;4.93;;
26098;SDS011;13860;52.370;6.764;2023-08-20T03:57:46;13.00;;;5.47;;
26098;SDS011;13860;52.370;6.764;2023-08-20T04:00:53;10.25;;;4.72;;
26098;SDS011;13860;52.370;6.764;2023-08-20T04:03:58;13.90;;;6.32;;
26098;SDS011;13860;52.370;6.764;2023-08-20T04:07:09;12.93;;;5.43;;
26098;SDS011;13860;52.370;6.764;2023-08-20T04:10:15;9.02;;;5.10;;
26098;SDS011;13860;52.370;6.764;2023-08-20T04:13:22;12.93;;;5.78;;
26098;SDS011;13860;52.370;6.764;2023-08-20T04:16:28;13.00;;;5.78;;
26098;SDS011;13860;52.370;6.764;2023-08-20T04:19:36;12.13;;;6.35;;
26098;SDS011;13860;52.370;6.764;2023-08-20T04:22:44;13.85;;;5.10;;
26098;SDS011;13860;52.370;6.764;2023-08-20T04:25:52;12.52;;;5.22;;
26098;SDS011;13860;52.370;6.764;2023-08-20T04:28:58;14.93;;;5.63;;
26098;SDS011;13860;52.370;6.764;2023-08-20T04:32:07;14.85;;;5.47;;
26098;SDS011;13860;52.370;6.764;2023-08-20T04:35:12;10.32;;;5.95;;
26098;SDS011;13860;52.370;6.764;2023-08-20T04:38:22;18.77;;;5.75;;
26098;SDS011;13860;52.370;6.764;2023-08-20T04:41:28;13.38;;;5.85;;
26098;SDS011;13860;52.370;6.764;2023-08-20T04:44:35;10.13;;;4.78;;
26098;SDS011;13860;52.370;6.764;2023-08-20T04:47:42;14.57;;;6.50;;
26098;SDS011;13860;52.370;6.764;2023-08-20T04:50:49;14.15;;;5.57;;
26098;SDS011;13860;52.370;6.764;2023-08-20T04:53:57;14.27;;;5.93;;
26098;SDS011;13860;52.370;6.764;2023-08-20T04:57:06;12.82;;;5.65;;
26098;SDS011;13860;52.370;6.764;2023-08-20T05:00:13;16.83;;;5.93;;
26098;SDS011;13860;52.370;6.764;2023-08-20T05:03:27;9.73;;;4.72;;
26098;SDS011;13860;52.370;6.764;2023-08-20T05:06:35;13.98;;;5.97;;
26098;SDS011;13860;52.370;6.764;2023-08-20T05:09:45;16.17;;;5.70;;
26098;SDS011;13860;52.370;6.764;2023-08-20T05:12:51;16.23;;;5.78;;
26098;SDS011;13860;52.370;6.764;2023-08-20T05:15:58;15.60;;;6.10;;
26098;SDS011;13860;52.370;6.764;2023-08-20T05:19:04;16.05;;;6.53;;
26098;SDS011;13860;52.370;6.764;2023-08-20T05:22:11;10.55;;;6.38;;
26098;SDS011;13860;52.370;6.764;2023-08-20T05:25:19;14.00;;;5.40;;
26098;SDS011;13860;52.370;6.764;2023-08-20T05:28:27;12.00;;;5.40;;
26098;SDS011;13860;52.370;6.764;2023-08-20T05:31:34;13.52;;;6.60;;
26098;SDS011;13860;52.370;6.764;2023-08-20T05:34:44;9.88;;;5.55;;
26098;SDS011;13860;52.370;6.764;2023-08-20T05:37:49;10.63;;;5.22;;
26098;SDS011;13860;52.370;6.764;2023-08-20T05:40:59;15.55;;;5.53;;
26098;SDS011;13860;52.370;6.764;2023-08-20T05:44:05;18.90;;;7.70;;
26098;SDS011;13860;52.370;6.764;2023-08-20T05:47:13;13.75;;;7.38;;
26098;SDS011;13860;52.370;6.764;2023-08-20T05:50:18;18.23;;;8.35;;
26098;SDS011;13860;52.370;6.764;2023-08-20T05:53:26;16.98;;;8.55;;
26098;SDS011;13860;52.370;6.764;2023-08-20T05:56:35;19.95;;;9.50;;
26098;SDS011;13860;52.370;6.764;2023-08-20T05:59:42;18.80;;;8.95;;
26098;SDS011;13860;52.370;6.764;2023-08-20T06:02:47;14.95;;;8.52;;
26098;SDS011;13860;52.370;6.764;2023-08-20T06:05:56;16.35;;;8.32;;
26098;SDS011;13860;52.370;6.764;2023-08-20T06:09:06;22.00;;;8.15;;
26098;SDS011;13860;52.370;6.764;2023-08-20T06:12:16;20.27;;;9.00;;
26098;SDS011;13860;52.370;6.764;2023-08-20T06:15:22;17.48;;;7.47;;
26098;SDS011;13860;52.370;6.764;2023-08-20T06:18:29;16.88;;;8.90;;
26098;SDS011;13860;52.370;6.764;2023-08-20T06:21:40;18.58;;;8.10;;
26098;SDS011;13860;52.370;6.764;2023-08-20T06:24:48;20.30;;;8.18;;
26098;SDS011;13860;52.370;6.764;2023-08-20T06:28:01;16.30;;;7.68;;
26098;SDS011;13860;52.370;6.764;2023-08-20T06:31:09;20.80;;;7.72;;
26098;SDS011;13860;52.370;6.764;2023-08-20T06:34:14;16.58;;;7.70;;
26098;SDS011;13860;52.370;6.764;2023-08-20T06:37:22;21.35;;;8.35;;
26098;SDS011;13860;52.370;6.764;2023-08-20T06:40:30;20.95;;;7.97;;
26098;SDS011;13860;52.370;6.764;2023-08-20T06:43:43;15.80;;;8.00;;
26098;SDS011;13860;52.370;6.764;2023-08-20T06:46:48;23.58;;;8.57;;
26098;SDS011;13860;52.370;6.764;2023-08-20T06:49:56;16.23;;;7.70;;
26098;SDS011;13860;52.370;6.764;2023-08-20T06:53:01;20.13;;;8.02;;
26098;SDS011;13860;52.370;6.764;2023-08-20T06:56:09;17.77;;;8.05;;
26098;SDS011;13860;52.370;6.764;2023-08-20T06:59:18;15.60;;;7.65;;
26098;SDS011;13860;52.370;6.764;2023-08-20T07:02:26;19.40;;;7.63;;
26098;SDS011;13860;52.370;6.764;2023-08-20T07:05:32;12.25;;;7.57;;
26098;SDS011;13860;52.370;6.764;2023-08-20T07:08:39;18.48;;;8.00;;
26098;SDS011;13860;52.370;6.764;2023-08-20T07:11:45;20.52;;;7.70;;
26098;SDS011;13860;52.370;6.764;2023-08-20T07:14:55;17.33;;;8.35;;
26098;SDS011;13860;52.370;6.764;2023-08-20T07:18:00;16.45;;;7.65;;
26098;SDS011;13860;52.370;6.764;2023-08-20T07:21:08;20.50;;;6.78;;
26098;SDS011;13860;52.370;6.764;2023-08-20T07:24:13;18.98;;;6.88;;
26098;SDS011;13860;52.370;6.764;2023-08-20T07:27:20;12.02;;;5.50;;
26098;SDS011;13860;52.370;6.764;2023-08-20T07:30:28;23.60;;;5.68;;
26098;SDS011;13860;52.370;6.764;2023-08-20T07:33:36;15.40;;;5.20;;
26098;SDS011;13860;52.370;6.764;2023-08-20T07:36:41;11.15;;;5.32;;
26098;SDS011;13860;52.370;6.764;2023-08-20T07:39:48;14.32;;;4.95;;
26098;SDS011;13860;52.370;6.764;2023-08-20T07:42:53;17.58;;;4.95;;
26098;SDS011;13860;52.370;6.764;2023-08-20T07:46:05;14.48;;;3.72;;
26098;SDS011;13860;52.370;6.764;2023-08-20T07:49:11;16.05;;;5.00;;
26098;SDS011;13860;52.370;6.764;2023-08-20T07:52:21;13.00;;;4.28;;
26098;SDS011;13860;52.370;6.764;2023-08-20T07:55:27;9.27;;;4.00;;
26098;SDS011;13860;52.370;6.764;2023-08-20T07:58:35;13.00;;;5.05;;
26098;SDS011;13860;52.370;6.764;2023-08-20T08:01:43;12.88;;;4.28;;
26098;SDS011;13860;52.370;6.764;2023-08-20T08:04:50;9.77;;;3.25;;
26098;SDS011;13860;52.370;6.764;2023-08-20T08:07:56;10.40;;;3.05;;
26098;SDS011;13860;52.370;6.764;2023-08-20T08:11:04;11.75;;;2.80;;
26098;SDS011;13860;52.370;6.764;2023-08-20T08:14:12;14.35;;;2.85;;
26098;SDS011;13860;52.370;6.764;2023-08-20T08:17:25;11.00;;;2.63;;
26098;SDS011;13860;52.370;6.764;2023-08-20T08:20:31;10.48;;;2.00;;
26098;SDS011;13860;52.370;6.764;2023-08-20T08:23:44;8.55;;;1.95;;
26098;SDS011;13860;52.370;6.764;2023-08-20T08:26:49;7.13;;;1.90;;
26098;SDS011;13860;52.370;6.764;2023-08-20T08:29:57;5.05;;;1.35;;
26098;SDS011;13860;52.370;6.764;2023-08-20T08:33:05;12.13;;;1.70;;
26098;SDS011;13860;52.370;6.764;2023-08-20T08:36:13;33.42;;;6.63;;
26098;SDS011;13860;52.370;6.764;2023-08-20T08:39:18;24.13;;;3.55;;
26098;SDS011;13860;52.370;6.764;2023-08-20T08:42:26;12.75;;;2.00;;
26098;SDS011;13860;52.370;6.764;2023-08-20T08:45:32;9.75;;;2.30;;
26098;SDS011;13860;52.370;6.764;2023-08-20T08:48:43;8.95;;;2.05;;
26098;SDS011;13860;52.370;6.764;2023-08-20T08:51:49;8.80;;;2.05;;
26098;SDS011;13860;52.370;6.764;2023-08-20T08:55:00;5.72;;;2.13;;
26098;SDS011;13860;52.370;6.764;2023-08-20T08:58:11;7.43;;;1.67;;
26098;SDS011;13860;52.370;6.764;2023-08-20T09:01:19;9.75;;;1.63;;
26098;SDS011;13860;52.370;6.764;2023-08-20T09:04:27;5.53;;;1.67;;
26098;SDS011;13860;52.370;6.764;2023-08-20T09:07:34;5.03;;;1.55;;
26098;SDS011;13860;52.370;6.764;2023-08-20T09:10:40;11.57;;;2.08;;
26098;SDS011;13860;52.370;6.764;2023-08-20T09:13:47;6.60;;;1.67;;
26098;SDS011;13860;52.370;6.764;2023-08-20T09:16:57;13.70;;;2.63;;
26098;SDS011;13860;52.370;6.764;2023-08-20T09:20:09;8.68;;;2.05;;
26098;SDS011;13860;52.370;6.764;2023-08-20T09:23:15;6.88;;;1.88;;
26098;SDS011;13860;52.370;6.764;2023-08-20T09:26:22;8.95;;;1.70;;
26098;SDS011;13860;52.370;6.764;2023-08-20T09:29:29;8.05;;;3.22;;
26098;SDS011;13860;52.370;6.764;2023-08-20T09:32:39;8.07;;;1.85;;
26098;SDS011;13860;52.370;6.764;2023-08-20T09:35:51;7.32;;;2.08;;
26098;SDS011;13860;52.370;6.764;2023-08-20T09:38:58;7.50;;;2.47;;
26098;SDS011;13860;52.370;6.764;2023-08-20T09:42:04;8.15;;;1.85;;
26098;SDS011;13860;52.370;6.764;2023-08-20T09:45:12;14.18;;;2.78;;
26098;SDS011;13860;52.370;6.764;2023-08-20T09:48:18;10.85;;;2.55;;
26098;SDS011;13860;52.370;6.764;2023-08-20T09:51:29;8.80;;;2.88;;
26098;SDS011;13860;52.370;6.764;2023-08-20T09:54:42;9.27;;;2.13;;
26098;SDS011;13860;52.370;6.764;2023-08-20T09:57:56;8.80;;;1.85;;
26098;SDS011;13860;52.370;6.764;2023-08-20T10:01:02;13.10;;;2.58;;
26098;SDS011;13860;52.370;6.764;2023-08-20T10:04:10;9.73;;;2.53;;
26098;SDS011;13860;52.370;6.764;2023-08-20T10:07:18;10.13;;;1.95;;
26098;SDS011;13860;52.370;6.764;2023-08-20T10:10:28;8.38;;;2.33;;
26098;SDS011;13860;52.370;6.764;2023-08-20T10:13:34;8.13;;;1.88;;
26098;SDS011;13860;52.370;6.764;2023-08-20T10:16:43;8.10;;;1.85;;
26098;SDS011;13860;52.370;6.764;2023-08-20T10:19:50;5.45;;;1.60;;
26098;SDS011;13860;52.370;6.764;2023-08-20T10:23:02;7.68;;;1.45;;
26098;SDS011;13860;52.370;6.764;2023-08-20T10:26:09;5.72;;;1.30;;
26098;SDS011;13860;52.370;6.764;2023-08-20T10:32:45;5.50;;;1.58;;
26098;SDS011;13860;52.370;6.764;2023-08-20T10:35:54;9.73;;;1.30;;
26098;SDS011;13860;52.370;6.764;2023-08-20T10:39:05;5.07;;;1.73;;
26098;SDS011;13860;52.370;6.764;2023-08-20T10:42:25;3.58;;;1.17;;
26098;SDS011;13860;52.370;6.764;2023-08-20T10:45:32;5.18;;;1.27;;
26098;SDS011;13860;52.370;6.764;2023-08-20T10:48:50;5.20;;;1.10;;
26098;SDS011;13860;52.370;6.764;2023-08-20T10:51:57;5.07;;;1.17;;
26098;SDS011;13860;52.370;6.764;2023-08-20T10:55:11;5.15;;;1.08;;
26098;SDS011;13860;52.370;6.764;2023-08-20T10:58:18;7.05;;;1.50;;
26098;SDS011;13860;52.370;6.764;2023-08-20T11:01:30;7.90;;;1.17;;
26098;SDS011;13860;52.370;6.764;2023-08-20T11:04:36;5.57;;;1.00;;
26098;SDS011;13860;52.370;6.764;2023-08-20T11:07:45;2.75;;;0.85;;
26098;SDS011;13860;52.370;6.764;2023-08-20T11:10:53;1.70;;;1.00;;
26098;SDS011;13860;52.370;6.764;2023-08-20T11:14:05;6.78;;;1.00;;
26098;SDS011;13860;52.370;6.764;2023-08-20T11:17:11;5.68;;;1.10;;
26098;SDS011;13860;52.370;6.764;2023-08-20T11:20:22;2.05;;;0.90;;
26098;SDS011;13860;52.370;6.764;2023-08-20T11:23:28;3.53;;;1.00;;
26098;SDS011;13860;52.370;6.764;2023-08-20T11:26:39;2.05;;;0.63;;
26098;SDS011;13860;52.370;6.764;2023-08-20T11:29:45;3.63;;;1.10;;
26098;SDS011;13860;52.370;6.764;2023-08-20T11:32:56;1.60;;;0.57;;
26098;SDS011;13860;52.370;6.764;2023-08-20T11:36:04;6.25;;;1.00;;
26098;SDS011;13860;52.370;6.764;2023-08-20T11:39:12;1.45;;;0.88;;
26098;SDS011;13860;52.370;6.764;2023-08-20T11:42:20;6.13;;;0.85;;
26098;SDS011;13860;52.370;6.764;2023-08-20T11:45:27;3.50;;;0.90;;
26098;SDS011;13860;52.370;6.764;2023-08-20T11:48:34;2.70;;;0.70;;
26098;SDS011;13860;52.370;6.764;2023-08-20T11:51:44;2.47;;;0.70;;
26098;SDS011;13860;52.370;6.764;2023-08-20T11:54:52;1.75;;;0.50;;
26098;SDS011;13860;52.370;6.764;2023-08-20T11:58:03;1.63;;;0.63;;
26098;SDS011;13860;52.370;6.764;2023-08-20T12:01:09;3.53;;;0.90;;
26098;SDS011;13860;52.370;6.764;2023-08-20T12:04:16;4.35;;;0.82;;
26098;SDS011;13860;52.370;6.764;2023-08-20T12:07:24;3.90;;;0.85;;
26098;SDS011;13860;52.370;6.764;2023-08-20T12:10:32;2.50;;;0.88;;
26098;SDS011;13860;52.370;6.764;2023-08-20T12:13:40;3.38;;;0.65;;
26098;SDS011;13860;52.370;6.764;2023-08-20T12:16:48;1.70;;;0.40;;
26098;SDS011;13860;52.370;6.764;2023-08-20T12:19:58;3.30;;;0.63;;
26098;SDS011;13860;52.370;6.764;2023-08-20T12:26:23;1.40;;;0.50;;
26098;SDS011;13860;52.370;6.764;2023-08-20T12:29:37;4.30;;;0.65;;
26098;SDS011;13860;52.370;6.764;2023-08-20T12:32:43;2.47;;;0.75;;
26098;SDS011;13860;52.370;6.764;2023-08-20T12:35:53;2.53;;;0.80;;
26098;SDS011;13860;52.370;6.764;2023-08-20T12:39:05;4.00;;;0.73;;
26098;SDS011;13860;52.370;6.764;2023-08-20T12:42:12;2.45;;;0.95;;
26098;SDS011;13860;52.370;6.764;2023-08-20T12:45:21;1.80;;;0.55;;
26098;SDS011;13860;52.370;6.764;2023-08-20T12:48:32;3.42;;;0.63;;
26098;SDS011;13860;52.370;6.764;2023-08-20T12:51:38;3.10;;;0.60;;
26098;SDS011;13860;52.370;6.764;2023-08-20T12:54:48;3.13;;;0.70;;
26098;SDS011;13860;52.370;6.764;2023-08-20T12:57:57;1.67;;;0.47;;
26098;SDS011;13860;52.370;6.764;2023-08-20T13:01:09;2.47;;;0.80;;
26098;SDS011;13860;52.370;6.764;2023-08-20T13:04:14;2.38;;;0.55;;
26098;SDS011;13860;52.370;6.764;2023-08-20T13:07:23;3.80;;;1.02;;
26098;SDS011;13860;52.370;6.764;2023-08-20T13:10:29;4.45;;;1.08;;
26098;SDS011;13860;52.370;6.764;2023-08-20T13:13:37;2.72;;;0.70;;
26098;SDS011;13860;52.370;6.764;2023-08-20T13:16:46;3.70;;;0.80;;
26098;SDS011;13860;52.370;6.764;2023-08-20T13:19:54;3.85;;;0.73;;
26098;SDS011;13860;52.370;6.764;2023-08-20T13:23:01;4.13;;;0.98;;
26098;SDS011;13860;52.370;6.764;2023-08-20T13:26:08;4.13;;;0.73;;
26098;SDS011;13860;52.370;6.764;2023-08-20T13:29:14;4.30;;;1.05;;
26098;SDS011;13860;52.370;6.764;2023-08-20T13:32:23;5.25;;;0.98;;
26098;SDS011;13860;52.370;6.764;2023-08-20T13:35:29;4.00;;;0.77;;
26098;SDS011;13860;52.370;6.764;2023-08-20T13:38:36;2.78;;;0.80;;
26098;SDS011;13860;52.370;6.764;2023-08-20T13:41:42;4.72;;;1.08;;
26098;SDS011;13860;52.370;6.764;2023-08-20T13:44:49;5.03;;;0.98;;
26098;SDS011;13860;52.370;6.764;2023-08-20T13:47:57;7.38;;;0.70;;
26098;SDS011;13860;52.370;6.764;2023-08-20T13:51:05;3.78;;;1.02;;
26098;SDS011;13860;52.370;6.764;2023-08-20T13:54:10;3.60;;;0.80;;
26098;SDS011;13860;52.370;6.764;2023-08-20T13:57:17;2.53;;;0.90;;
26098;SDS011;13860;52.370;6.764;2023-08-20T14:00:23;7.45;;;1.00;;
26098;SDS011;13860;52.370;6.764;2023-08-20T14:03:33;2.65;;;0.70;;
26098;SDS011;13860;52.370;6.764;2023-08-20T14:06:40;3.10;;;1.13;;
26098;SDS011;13860;52.370;6.764;2023-08-20T14:09:47;5.55;;;1.00;;
26098;SDS011;13860;52.370;6.764;2023-08-20T14:12:53;4.53;;;0.85;;
26098;SDS011;13860;52.370;6.764;2023-08-20T14:16:00;3.17;;;0.80;;
26098;SDS011;13860;52.370;6.764;2023-08-20T14:19:09;6.82;;;1.05;;
26098;SDS011;13860;52.370;6.764;2023-08-20T14:22:17;4.90;;;1.15;;
26098;SDS011;13860;52.370;6.764;2023-08-20T14:25:22;3.03;;;0.80;;
26098;SDS011;13860;52.370;6.764;2023-08-20T14:28:30;5.45;;;1.20;;
26098;SDS011;13860;52.370;6.764;2023-08-20T14:31:38;2.35;;;0.80;;
26098;SDS011;13860;52.370;6.764;2023-08-20T14:34:51;3.65;;;0.75;;
26098;SDS011;13860;52.370;6.764;2023-08-20T14:37:56;4.75;;;0.80;;
26098;SDS011;13860;52.370;6.764;2023-08-20T14:41:04;6.85;;;1.30;;
26098;SDS011;13860;52.370;6.764;2023-08-20T14:44:10;6.57;;;1.33;;
26098;SDS011;13860;52.370;6.764;2023-08-20T14:47:18;2.88;;;0.90;;
26098;SDS011;13860;52.370;6.764;2023-08-20T14:50:26;5.78;;;1.17;;
26098;SDS011;13860;52.370;6.764;2023-08-20T14:53:36;3.45;;;0.98;;
26098;SDS011;13860;52.370;6.764;2023-08-20T14:56:42;4.80;;;0.88;;
26098;SDS011;13860;52.370;6.764;2023-08-20T14:59:52;4.82;;;0.90;;
26098;SDS011;13860;52.370;6.764;2023-08-20T15:03:01;4.72;;;1.17;;
26098;SDS011;13860;52.370;6.764;2023-08-20T15:06:16;4.28;;;1.30;;
26098;SDS011;13860;52.370;6.764;2023-08-20T15:09:23;3.42;;;1.42;;
26098;SDS011;13860;52.370;6.764;2023-08-20T15:12:32;4.18;;;2.08;;
26098;SDS011;13860;52.370;6.764;2023-08-20T15:15:41;5.70;;;1.20;;
26098;SDS011;13860;52.370;6.764;2023-08-20T15:18:51;4.78;;;1.98;;
26098;SDS011;13860;52.370;6.764;2023-08-20T15:21:59;8.48;;;1.48;;
26098;SDS011;13860;52.370;6.764;2023-08-20T15:25:07;5.07;;;1.33;;
26098;SDS011;13860;52.370;6.764;2023-08-20T15:28:13;4.38;;;1.23;;
26098;SDS011;13860;52.370;6.764;2023-08-20T15:31:20;2.97;;;1.23;;
26098;SDS011;13860;52.370;6.764;2023-08-20T15:34:26;6.05;;;0.88;;
26098;SDS011;13860;52.370;6.764;2023-08-20T15:37:36;7.50;;;1.65;;
26098;SDS011;13860;52.370;6.764;2023-08-20T15:40:41;5.97;;;1.20;;
26098;SDS011;13860;52.370;6.764;2023-08-20T15:43:49;3.50;;;1.25;;
26098;SDS011;13860;52.370;6.764;2023-08-20T15:46:54;4.43;;;1.60;;
26098;SDS011;13860;52.370;6.764;2023-08-20T15:50:05;8.77;;;1.42;;
26098;SDS011;13860;52.370;6.764;2023-08-20T15:53:14;6.70;;;1.50;;
26098;SDS011;13860;52.370;6.764;2023-08-20T15:56:24;5.75;;;0.90;;
26098;SDS011;13860;52.370;6.764;2023-08-20T15:59:30;7.38;;;1.55;;
26098;SDS011;13860;52.370;6.764;2023-08-20T16:02:40;7.68;;;1.17;;
26098;SDS011;13860;52.370;6.764;2023-08-20T16:05:47;5.60;;;1.20;;
26098;SDS011;13860;52.370;6.764;2023-08-20T16:08:57;8.00;;;1.13;;
26098;SDS011;13860;52.370;6.764;2023-08-20T16:12:02;4.07;;;1.27;;
26098;SDS011;13860;52.370;6.764;2023-08-20T16:15:13;6.32;;;1.73;;
26098;SDS011;13860;52.370;6.764;2023-08-20T16:18:18;9.20;;;1.33;;
26098;SDS011;13860;52.370;6.764;2023-08-20T16:21:26;4.07;;;1.30;;
26098;SDS011;13860;52.370;6.764;2023-08-20T16:24:34;10.82;;;1.30;;
26098;SDS011;13860;52.370;6.764;2023-08-20T16:27:41;5.25;;;1.08;;
26098;SDS011;13860;52.370;6.764;2023-08-20T16:30:46;3.63;;;1.10;;
26098;SDS011;13860;52.370;6.764;2023-08-20T16:33:54;9.52;;;2.03;;
26098;SDS011;13860;52.370;6.764;2023-08-20T16:36:59;7.45;;;1.75;;
26098;SDS011;13860;52.370;6.764;2023-08-20T16:40:10;5.88;;;1.38;;
26098;SDS011;13860;52.370;6.764;2023-08-20T16:43:24;6.90;;;1.20;;
26098;SDS011;13860;52.370;6.764;2023-08-20T16:46:31;6.28;;;1.15;;
26098;SDS011;13860;52.370;6.764;2023-08-20T16:49:38;7.30;;;1.50;;
26098;SDS011;13860;52.370;6.764;2023-08-20T16:52:47;4.55;;;1.27;;
26098;SDS011;13860;52.370;6.764;2023-08-20T16:55:55;5.63;;;1.08;;
26098;SDS011;13860;52.370;6.764;2023-08-20T16:59:02;5.43;;;1.70;;
26098;SDS011;13860;52.370;6.764;2023-08-20T17:02:08;7.00;;;1.23;;
26098;SDS011;13860;52.370;6.764;2023-08-20T17:05:16;7.43;;;1.08;;
26098;SDS011;13860;52.370;6.764;2023-08-20T17:08:21;6.88;;;1.38;;
26098;SDS011;13860;52.370;6.764;2023-08-20T17:11:31;3.08;;;0.90;;
26098;SDS011;13860;52.370;6.764;2023-08-20T17:14:37;4.90;;;1.30;;
26098;SDS011;13860;52.370;6.764;2023-08-20T17:17:45;7.40;;;1.10;;
26098;SDS011;13860;52.370;6.764;2023-08-20T17:20:52;4.38;;;0.90;;
26098;SDS011;13860;52.370;6.764;2023-08-20T17:24:00;2.83;;;0.77;;
26098;SDS011;13860;52.370;6.764;2023-08-20T17:27:08;5.68;;;0.88;;
26098;SDS011;13860;52.370;6.764;2023-08-20T17:30:16;3.67;;;0.95;;
26098;SDS011;13860;52.370;6.764;2023-08-20T17:33:24;4.78;;;1.98;;
26098;SDS011;13860;52.370;6.764;2023-08-20T17:36:32;8.55;;;2.05;;
26098;SDS011;13860;52.370;6.764;2023-08-20T17:39:37;11.15;;;2.40;;
26098;SDS011;13860;52.370;6.764;2023-08-20T17:42:47;7.47;;;2.20;;
26098;SDS011;13860;52.370;6.764;2023-08-20T17:45:53;9.50;;;1.38;;
26098;SDS011;13860;52.370;6.764;2023-08-20T17:49:00;4.30;;;0.90;;
26098;SDS011;13860;52.370;6.764;2023-08-20T17:52:06;5.97;;;1.38;;
26098;SDS011;13860;52.370;6.764;2023-08-20T17:55:13;5.05;;;1.45;;
26098;SDS011;13860;52.370;6.764;2023-08-20T17:58:21;8.90;;;1.33;;
26098;SDS011;13860;52.370;6.764;2023-08-20T18:01:29;6.97;;;1.33;;
26098;SDS011;13860;52.370;6.764;2023-08-20T18:04:35;5.95;;;1.67;;
26098;SDS011;13860;52.370;6.764;2023-08-20T18:07:45;4.90;;;1.08;;
26098;SDS011;13860;52.370;6.764;2023-08-20T18:10:51;5.97;;;1.27;;
26098;SDS011;13860;52.370;6.764;2023-08-20T18:14:06;4.82;;;1.10;;
26098;SDS011;13860;52.370;6.764;2023-08-20T18:17:11;9.25;;;1.23;;
26098;SDS011;13860;52.370;6.764;2023-08-20T18:20:18;4.10;;;1.30;;
26098;SDS011;13860;52.370;6.764;2023-08-20T18:23:24;6.85;;;1.10;;
26098;SDS011;13860;52.370;6.764;2023-08-20T18:26:33;5.97;;;1.60;;
26098;SDS011;13860;52.370;6.764;2023-08-20T18:29:42;5.03;;;1.50;;
26098;SDS011;13860;52.370;6.764;2023-08-20T18:32:51;3.60;;;1.35;;
26098;SDS011;13860;52.370;6.764;2023-08-20T18:35:59;5.07;;;1.60;;
26098;SDS011;13860;52.370;6.764;2023-08-20T18:39:08;7.72;;;1.40;;
26098;SDS011;13860;52.370;6.764;2023-08-20T18:42:16;3.78;;;1.13;;
26098;SDS011;13860;52.370;6.764;2023-08-20T18:45:26;5.43;;;1.33;;
26098;SDS011;13860;52.370;6.764;2023-08-20T18:48:39;6.82;;;1.40;;
26098;SDS011;13860;52.370;6.764;2023-08-20T18:51:47;6.60;;;1.35;;
26098;SDS011;13860;52.370;6.764;2023-08-20T18:54:53;6.78;;;1.30;;
26098;SDS011;13860;52.370;6.764;2023-08-20T18:58:01;6.00;;;1.27;;